Voornedijk — PBOW — position and weather

sailwx.info

Track history (hours):
 
Tides and Currents Weather Stations Pressure Air Temp Water Temp Dewpoint Dewpoint Depression Visibility Wind Speed Wind Dir Waves Ship Positions

Voornedijk

Last reported at 2017-Nov-18 03:04 UTC. Time now 2017-Nov-18 04:57 UTC.
Position N 51°43' W 002°29'.

Length 90 m; draft 6.4 m.

Type: Cargo ship. MMSI: 244971000.

Date/timePositionNaut miles runAvg speedWind from/ knotsBaromVisibWave heightAir tempDewpointWater temp
2017-Nov-18 03:04N 51°43' W 002°29'0 0.0
2017-Nov-18 02:52N 51°43' W 002°29'0 0.0
2017-Nov-18 01:34N 51°43' W 002°29'0 0.0
2017-Nov-17 23:28N 51°43' W 002°29'0 0.0
2017-Nov-17 22:58N 51°43' W 002°29'0 0.0
2017-Nov-17 22:28N 51°43' W 002°29'0 0.0
2017-Nov-17 21:46N 51°43' W 002°29'0 0.0
2017-Nov-17 19:37N 51°43' W 002°29'0 0.0
2017-Nov-17 19:28N 51°43' W 002°29'0 0.0
2017-Nov-17 18:52N 51°43' W 002°29'0 0.0
2017-Nov-17 08:53N 51°43' W 002°29'0 0.2
2017-Nov-17 06:55N 51°43' W 002°29'1 2.3
2017-Nov-17 06:30N 51°42' W 002°30'510.0
2017-Nov-17 06:00N 51°40' W 002°36'5 9.9
2017-Nov-17 05:30N 51°35' W 002°41'510.8
2017-Nov-17 05:00N 51°30' W 002°44'510.0
2017-Nov-17 04:30N 51°28' W 002°51'5 9.4
2017-Nov-17 04:00N 51°27' W 002°59'712.0
2017-Nov-17 03:27N 51°22' W 003°06'52 7.9
2017-Nov-16 20:49N 51°10' W 004°27'2 5.7
2017-Nov-16 20:29N 51°09' W 004°29'3 5.7
2017-Nov-16 20:00N 51°07' W 004°32'3 5.7
2017-Nov-16 19:24N 51°05' W 004°36'4 6.1
2017-Nov-16 18:42N 51°02' W 004°41'1 6.5
2017-Nov-16 18:30N 51°01' W 004°43'3 6.8
2017-Nov-16 18:00N 50°59' W 004°47'4 7.2
2017-Nov-16 17:30N 50°56' W 004°51'4 7.6
2017-Nov-16 17:00N 50°54' W 004°55'4 8.0
2017-Nov-16 16:30N 50°51' W 005°00'4 8.2
2017-Nov-16 16:00N 50°48' W 005°05'4 8.5
2017-Nov-16 15:30N 50°45' W 005°10'4 8.4
2017-Nov-16 15:00N 50°43' W 005°15'4 8.4
2017-Nov-16 14:30N 50°40' W 005°20'4 8.5
2017-Nov-16 14:00N 50°37' W 005°25'4 8.5
2017-Nov-16 13:30N 50°34' W 005°30'4 8.5
2017-Nov-16 13:00N 50°31' W 005°35'4 9.0
2017-Nov-16 12:30N 50°28' W 005°40'5 8.8
2017-Nov-16 11:58N 50°25' W 005°46'4 8.5
2017-Nov-16 11:29N 50°22' W 005°50'87 8.7
2017-Nov-16 01:35N 48°56' W 006°06'13 9.9
2017-Nov-16 00:19N 48°44' W 006°08'15 9.4
2017-Nov-15 22:42N 48°29' W 006°08'4 9.5
2017-Nov-15 22:19N 48°25' W 006°06'3 9.1
2017-Nov-15 21:56N 48°22' W 006°05'5 9.0
2017-Nov-15 21:21N 48°17' W 006°03'9 8.8
2017-Nov-15 20:22N 48°09' W 005°59'7 8.5
2017-Nov-15 19:31N 48°02' W 005°55'2 8.2
2017-Nov-15 19:17N 47°60' W 005°54'2 8.1
2017-Nov-15 19:00N 47°58' W 005°53'5 8.1
2017-Nov-15 18:21N 47°53' W 005°51'4 8.0
2017-Nov-15 17:52N 47°49' W 005°49'3 8.0
2017-Nov-15 17:30N 47°46' W 005°47'4 8.1
2017-Nov-15 17:00N 47°42' W 005°45'5 8.0
2017-Nov-15 16:24N 47°38' W 005°43'8 8.1
2017-Nov-15 15:22N 47°30' W 005°38'4 8.2
2017-Nov-15 14:51N 47°26' W 005°37'3 8.3
2017-Nov-15 14:30N 47°23' W 005°35'4 8.5
2017-Nov-15 14:00N 47°19' W 005°33'5 8.4
2017-Nov-15 13:22N 47°14' W 005°31'7 8.6
2017-Nov-15 12:33N 47°08' W 005°28'0 8.6
2017-Nov-15 12:31N 47°07' W 005°27'215 9.3
2017-Nov-14 13:16N 43°43' W 003°51'3 9.6
2017-Nov-14 12:54N 43°40' W 003°50'4 9.8
2017-Nov-14 12:30N 43°36' W 003°48'5 9.8
2017-Nov-14 12:00N 43°32' W 003°45'4 8.2
2017-Nov-14 11:30N 43°28' W 003°47'2 3.7
2017-Nov-14 10:59N 43°27' W 003°49'0 0.0
2017-Nov-14 10:29N 43°27' W 003°49'0 0.0
2017-Nov-14 09:53N 43°27' W 003°49'0 0.0
2017-Nov-14 09:29N 43°27' W 003°49'0 0.0
2017-Nov-14 08:53N 43°27' W 003°49'0 0.0
2017-Nov-14 08:17N 43°27' W 003°49'0 0.0
2017-Nov-14 07:41N 43°27' W 003°49'0 0.0
2017-Nov-14 07:17N 43°27' W 003°49'0 0.0
2017-Nov-14 06:59N 43°27' W 003°49'0 0.0
2017-Nov-14 06:29N 43°27' W 003°49'0 0.0
2017-Nov-14 05:53N 43°27' W 003°49'0 0.0
2017-Nov-14 05:29N 43°27' W 003°49'0 0.0
2017-Nov-14 04:59N 43°27' W 003°49'0 0.0
2017-Nov-14 04:29N 43°27' W 003°49'0 0.0
2017-Nov-14 03:47N 43°27' W 003°49'0 0.0
2017-Nov-14 03:29N 43°27' W 003°49'0 0.0
2017-Nov-14 02:59N 43°27' W 003°49'0 0.0
2017-Nov-14 02:29N 43°27' W 003°49'0 0.0
2017-Nov-14 01:59N 43°27' W 003°49'0 0.0
2017-Nov-14 01:29N 43°27' W 003°49'0 0.0
2017-Nov-14 00:59N 43°27' W 003°49'0 0.0
2017-Nov-14 00:29N 43°27' W 003°49'0 0.0
2017-Nov-13 23:53N 43°27' W 003°49'0 0.0
2017-Nov-13 23:29N 43°27' W 003°49'0 0.0
2017-Nov-13 22:59N 43°27' W 003°49'0 0.0
2017-Nov-13 22:29N 43°27' W 003°49'0 0.0
2017-Nov-13 21:59N 43°27' W 003°49'0 0.0
2017-Nov-13 01:59N 43°27' W 003°49'0 0.0
2017-Nov-13 01:29N 43°27' W 003°49'0 0.0
2017-Nov-13 00:59N 43°27' W 003°49'0 0.0
2017-Nov-13 00:17N 43°27' W 003°49'0 0.0
2017-Nov-12 23:59N 43°27' W 003°49'0 0.0
2017-Nov-12 23:29N 43°27' W 003°49'0 0.0
2017-Nov-12 22:59N 43°27' W 003°49'0 0.0
2017-Nov-12 22:29N 43°27' W 003°49'0 0.0
2017-Nov-12 21:59N 43°27' W 003°49'0 0.0
2017-Nov-12 21:23N 43°27' W 003°49'0 0.0
2017-Nov-12 10:11N 43°27' W 003°49'0 0.4
2017-Nov-12 10:00N 43°27' W 003°49'3 6.7
2017-Nov-12 09:30N 43°28' W 003°45'5 9.5
2017-Nov-12 09:00N 43°33' W 003°47'510.4
2017-Nov-12 08:30N 43°38' W 003°49'510.5
2017-Nov-12 08:00N 43°43' W 003°51'19310.8
2017-Nov-11 14:06N 46°45' W 005°22'311.0
2017-Nov-11 13:52N 46°48' W 005°24'411.2
2017-Nov-11 13:29N 46°52' W 005°26'511.2
2017-Nov-11 13:00N 46°57' W 005°29'610.9
2017-Nov-11 12:30N 47°02' W 005°31'610.9
2017-Nov-11 11:56N 47°08' W 005°33'511.2
2017-Nov-11 11:28N 47°13' W 005°35'2511.2
2017-Nov-11 09:12N 47°37' W 005°47'410.8
2017-Nov-11 08:53N 47°40' W 005°49'610.7
2017-Nov-11 08:20N 47°46' W 005°52'810.4
2017-Nov-11 07:32N 47°53' W 005°57'210.1
2017-Nov-11 07:19N 47°55' W 005°58'410.3
2017-Nov-11 06:55N 47°59' W 006°01'410.1
2017-Nov-11 06:29N 48°03' W 006°03'510.2
2017-Nov-11 05:57N 48°08' W 006°06'5310.5
2017-Nov-11 00:55N 49°01' W 006°08'510.6
2017-Nov-11 00:27N 49°06' W 006°08'74 9.8
2017-Nov-10 16:50N 50°20' W 005°59'3 9.4
2017-Nov-10 16:30N 50°22' W 005°55'5 9.8
2017-Nov-10 16:00N 50°26' W 005°50'510.0
2017-Nov-10 15:30N 50°29' W 005°44'510.1
2017-Nov-10 15:00N 50°32' W 005°38'510.0
2017-Nov-10 14:30N 50°36' W 005°32'510.0
2017-Nov-10 14:00N 50°39' W 005°26'5 9.9
2017-Nov-10 13:30N 50°42' W 005°20'5 9.0
2017-Nov-10 13:00N 50°45' W 005°15'5 9.1
2017-Nov-10 12:28N 50°48' W 005°09'4 8.9
2017-Nov-10 11:58N 50°51' W 005°04'4 8.6
2017-Nov-10 11:27N 50°54' W 004°58'4 8.1
2017-Nov-10 10:57N 50°56' W 004°53'4 7.8
2017-Nov-10 10:28N 50°59' W 004°48'4 7.2
2017-Nov-10 09:57N 51°01' W 004°43'4 7.5
2017-Nov-10 09:26N 51°03' W 004°39'3 7.2
2017-Nov-10 09:00N 51°06' W 004°35'3 6.6
2017-Nov-10 08:29N 51°08' W 004°31'4 8.1
2017-Nov-10 07:58N 51°10' W 004°26'4 6.5
2017-Nov-10 07:25N 51°12' W 004°21'2 4.4
2017-Nov-10 07:00N 51°13' W 004°18'3 4.5
2017-Nov-10 06:19N 51°15' W 004°15'1 4.0
2017-Nov-10 05:59N 51°16' W 004°13'2 3.9
2017-Nov-10 05:30N 51°16' W 004°10'5 6.4
2017-Nov-10 04:43N 51°17' W 004°02'2510.4
2017-Nov-10 02:18N 51°21' W 003°22'413.6
2017-Nov-10 02:00N 51°21' W 003°16'611.2
2017-Nov-10 01:30N 51°24' W 003°08'612.9
2017-Nov-10 01:00N 51°27' W 002°59'713.1
2017-Nov-10 00:30N 51°29' W 002°49'611.8
2017-Nov-10 00:00N 51°34' W 002°42'510.1
2017-Nov-09 23:30N 51°38' W 002°38'5 9.2
2017-Nov-09 23:00N 51°41' W 002°32'3 0.2
2017-Nov-09 08:00N 51°43' W 002°29'0 0.0
2017-Nov-08 07:06N 51°43' W 002°29'0 0.0
2017-Nov-08 06:48N 51°43' W 002°29'0 0.0
2017-Nov-08 06:30N 51°43' W 002°29'0 0.0
2017-Nov-08 05:54N 51°43' W 002°29'0 0.0
2017-Nov-08 05:30N 51°43' W 002°29'0 0.0
2017-Nov-08 05:00N 51°43' W 002°29'0 0.0
2017-Nov-08 04:24N 51°43' W 002°29'  
Track history (hours):
 
Tides and Currents Weather Stations Pressure Air Temp Water Temp Dewpoint Dewpoint Depression Visibility Wind Speed Wind Dir Waves Ship Positions

Voornedijk

Last reported at 2017-Nov-18 03:04 UTC. Time now 2017-Nov-18 04:58 UTC.
Position N 51°43' W 002°29'.

Length 90 m; draft 6.4 m.

Type: Cargo ship. MMSI: 244971000.

Date/timePositionNaut miles runAvg speedWind from/ knotsBaromVisibWave heightAir tempDewpointWater temp
2017-Nov-18 03:04N 51°43' W 002°29'0 0.0
2017-Nov-18 02:52N 51°43' W 002°29'0 0.0
2017-Nov-18 01:34N 51°43' W 002°29'0 0.0
2017-Nov-17 23:28N 51°43' W 002°29'0 0.0
2017-Nov-17 22:58N 51°43' W 002°29'0 0.0
2017-Nov-17 22:28N 51°43' W 002°29'0 0.0
2017-Nov-17 21:46N 51°43' W 002°29'0 0.0
2017-Nov-17 19:37N 51°43' W 002°29'0 0.0
2017-Nov-17 19:28N 51°43' W 002°29'0 0.0
2017-Nov-17 18:52N 51°43' W 002°29'0 0.0
2017-Nov-17 08:53N 51°43' W 002°29'0 0.2
2017-Nov-17 06:55N 51°43' W 002°29'1 2.3
2017-Nov-17 06:30N 51°42' W 002°30'510.0
2017-Nov-17 06:00N 51°40' W 002°36'5 9.9
2017-Nov-17 05:30N 51°35' W 002°41'510.8
2017-Nov-17 05:00N 51°30' W 002°44'510.0
2017-Nov-17 04:30N 51°28' W 002°51'5 9.4
2017-Nov-17 04:00N 51°27' W 002°59'712.0
2017-Nov-17 03:27N 51°22' W 003°06'52 7.9
2017-Nov-16 20:49N 51°10' W 004°27'2 5.7
2017-Nov-16 20:29N 51°09' W 004°29'3 5.7
2017-Nov-16 20:00N 51°07' W 004°32'3 5.7
2017-Nov-16 19:24N 51°05' W 004°36'4 6.1
2017-Nov-16 18:42N 51°02' W 004°41'1 6.5
2017-Nov-16 18:30N 51°01' W 004°43'3 6.8
2017-Nov-16 18:00N 50°59' W 004°47'4 7.2
2017-Nov-16 17:30N 50°56' W 004°51'4 7.6
2017-Nov-16 17:00N 50°54' W 004°55'4 8.0
2017-Nov-16 16:30N 50°51' W 005°00'4 8.2
2017-Nov-16 16:00N 50°48' W 005°05'4 8.5
2017-Nov-16 15:30N 50°45' W 005°10'4 8.4
2017-Nov-16 15:00N 50°43' W 005°15'4 8.4
2017-Nov-16 14:30N 50°40' W 005°20'4 8.5
2017-Nov-16 14:00N 50°37' W 005°25'4 8.5
2017-Nov-16 13:30N 50°34' W 005°30'4 8.5
2017-Nov-16 13:00N 50°31' W 005°35'4 9.0
2017-Nov-16 12:30N 50°28' W 005°40'5 8.8
2017-Nov-16 11:58N 50°25' W 005°46'4 8.5
2017-Nov-16 11:29N 50°22' W 005°50'87 8.7
2017-Nov-16 01:35N 48°56' W 006°06'13 9.9
2017-Nov-16 00:19N 48°44' W 006°08'15 9.4
2017-Nov-15 22:42N 48°29' W 006°08'4 9.5
2017-Nov-15 22:19N 48°25' W 006°06'3 9.1
2017-Nov-15 21:56N 48°22' W 006°05'5 9.0
2017-Nov-15 21:21N 48°17' W 006°03'9 8.8
2017-Nov-15 20:22N 48°09' W 005°59'7 8.5
2017-Nov-15 19:31N 48°02' W 005°55'2 8.2
2017-Nov-15 19:17N 47°60' W 005°54'2 8.1
2017-Nov-15 19:00N 47°58' W 005°53'5 8.1
2017-Nov-15 18:21N 47°53' W 005°51'4 8.0
2017-Nov-15 17:52N 47°49' W 005°49'3 8.0
2017-Nov-15 17:30N 47°46' W 005°47'4 8.1
2017-Nov-15 17:00N 47°42' W 005°45'5 8.0
2017-Nov-15 16:24N 47°38' W 005°43'8 8.1
2017-Nov-15 15:22N 47°30' W 005°38'4 8.2
2017-Nov-15 14:51N 47°26' W 005°37'3 8.3
2017-Nov-15 14:30N 47°23' W 005°35'4 8.5
2017-Nov-15 14:00N 47°19' W 005°33'5 8.4
2017-Nov-15 13:22N 47°14' W 005°31'7 8.6
2017-Nov-15 12:33N 47°08' W 005°28'0 8.6
2017-Nov-15 12:31N 47°07' W 005°27'215 9.3
2017-Nov-14 13:16N 43°43' W 003°51'3 9.6
2017-Nov-14 12:54N 43°40' W 003°50'4 9.8
2017-Nov-14 12:30N 43°36' W 003°48'5 9.8
2017-Nov-14 12:00N 43°32' W 003°45'4 8.2
2017-Nov-14 11:30N 43°28' W 003°47'2 3.7
2017-Nov-14 10:59N 43°27' W 003°49'0 0.0
2017-Nov-14 10:29N 43°27' W 003°49'0 0.0
2017-Nov-14 09:53N 43°27' W 003°49'0 0.0
2017-Nov-14 09:29N 43°27' W 003°49'0 0.0
2017-Nov-14 08:53N 43°27' W 003°49'0 0.0
2017-Nov-14 08:17N 43°27' W 003°49'0 0.0
2017-Nov-14 07:41N 43°27' W 003°49'0 0.0
2017-Nov-14 07:17N 43°27' W 003°49'0 0.0
2017-Nov-14 06:59N 43°27' W 003°49'0 0.0
2017-Nov-14 06:29N 43°27' W 003°49'0 0.0
2017-Nov-14 05:53N 43°27' W 003°49'0 0.0
2017-Nov-14 05:29N 43°27' W 003°49'0 0.0
2017-Nov-14 04:59N 43°27' W 003°49'0 0.0
2017-Nov-14 04:29N 43°27' W 003°49'0 0.0
2017-Nov-14 03:47N 43°27' W 003°49'0 0.0
2017-Nov-14 03:29N 43°27' W 003°49'0 0.0
2017-Nov-14 02:59N 43°27' W 003°49'0 0.0
2017-Nov-14 02:29N 43°27' W 003°49'0 0.0
2017-Nov-14 01:59N 43°27' W 003°49'0 0.0
2017-Nov-14 01:29N 43°27' W 003°49'0 0.0
2017-Nov-14 00:59N 43°27' W 003°49'0 0.0
2017-Nov-14 00:29N 43°27' W 003°49'0 0.0
2017-Nov-13 23:53N 43°27' W 003°49'0 0.0
2017-Nov-13 23:29N 43°27' W 003°49'0 0.0
2017-Nov-13 22:59N 43°27' W 003°49'0 0.0
2017-Nov-13 22:29N 43°27' W 003°49'0 0.0
2017-Nov-13 21:59N 43°27' W 003°49'0 0.0
2017-Nov-13 01:59N 43°27' W 003°49'0 0.0
2017-Nov-13 01:29N 43°27' W 003°49'0 0.0
2017-Nov-13 00:59N 43°27' W 003°49'0 0.0
2017-Nov-13 00:17N 43°27' W 003°49'0 0.0
2017-Nov-12 23:59N 43°27' W 003°49'0 0.0
2017-Nov-12 23:29N 43°27' W 003°49'0 0.0
2017-Nov-12 22:59N 43°27' W 003°49'0 0.0
2017-Nov-12 22:29N 43°27' W 003°49'0 0.0
2017-Nov-12 21:59N 43°27' W 003°49'0 0.0
2017-Nov-12 21:23N 43°27' W 003°49'0 0.0
2017-Nov-12 10:11N 43°27' W 003°49'0 0.4
2017-Nov-12 10:00N 43°27' W 003°49'3 6.7
2017-Nov-12 09:30N 43°28' W 003°45'5 9.5
2017-Nov-12 09:00N 43°33' W 003°47'510.4
2017-Nov-12 08:30N 43°38' W 003°49'510.5
2017-Nov-12 08:00N 43°43' W 003°51'19310.8
2017-Nov-11 14:06N 46°45' W 005°22'311.0
2017-Nov-11 13:52N 46°48' W 005°24'411.2
2017-Nov-11 13:29N 46°52' W 005°26'511.2
2017-Nov-11 13:00N 46°57' W 005°29'610.9
2017-Nov-11 12:30N 47°02' W 005°31'610.9
2017-Nov-11 11:56N 47°08' W 005°33'511.2
2017-Nov-11 11:28N 47°13' W 005°35'2511.2
2017-Nov-11 09:12N 47°37' W 005°47'410.8
2017-Nov-11 08:53N 47°40' W 005°49'610.7
2017-Nov-11 08:20N 47°46' W 005°52'810.4
2017-Nov-11 07:32N 47°53' W 005°57'210.1
2017-Nov-11 07:19N 47°55' W 005°58'410.3
2017-Nov-11 06:55N 47°59' W 006°01'410.1
2017-Nov-11 06:29N 48°03' W 006°03'510.2
2017-Nov-11 05:57N 48°08' W 006°06'5310.5
2017-Nov-11 00:55N 49°01' W 006°08'510.6
2017-Nov-11 00:27N 49°06' W 006°08'74 9.8
2017-Nov-10 16:50N 50°20' W 005°59'3 9.4
2017-Nov-10 16:30N 50°22' W 005°55'5 9.8
2017-Nov-10 16:00N 50°26' W 005°50'510.0
2017-Nov-10 15:30N 50°29' W 005°44'510.1
2017-Nov-10 15:00N 50°32' W 005°38'510.0
2017-Nov-10 14:30N 50°36' W 005°32'510.0
2017-Nov-10 14:00N 50°39' W 005°26'5 9.9
2017-Nov-10 13:30N 50°42' W 005°20'5 9.0
2017-Nov-10 13:00N 50°45' W 005°15'5 9.1
2017-Nov-10 12:28N 50°48' W 005°09'4 8.9
2017-Nov-10 11:58N 50°51' W 005°04'4 8.6
2017-Nov-10 11:27N 50°54' W 004°58'4 8.1
2017-Nov-10 10:57N 50°56' W 004°53'4 7.8
2017-Nov-10 10:28N 50°59' W 004°48'4 7.2
2017-Nov-10 09:57N 51°01' W 004°43'4 7.5
2017-Nov-10 09:26N 51°03' W 004°39'3 7.2
2017-Nov-10 09:00N 51°06' W 004°35'3 6.6
2017-Nov-10 08:29N 51°08' W 004°31'4 8.1
2017-Nov-10 07:58N 51°10' W 004°26'4 6.5
2017-Nov-10 07:25N 51°12' W 004°21'2 4.4
2017-Nov-10 07:00N 51°13' W 004°18'3 4.5
2017-Nov-10 06:19N 51°15' W 004°15'1 4.0
2017-Nov-10 05:59N 51°16' W 004°13'2 3.9
2017-Nov-10 05:30N 51°16' W 004°10'5 6.4
2017-Nov-10 04:43N 51°17' W 004°02'2510.4
2017-Nov-10 02:18N 51°21' W 003°22'413.6
2017-Nov-10 02:00N 51°21' W 003°16'611.2
2017-Nov-10 01:30N 51°24' W 003°08'612.9
2017-Nov-10 01:00N 51°27' W 002°59'713.1
2017-Nov-10 00:30N 51°29' W 002°49'611.8
2017-Nov-10 00:00N 51°34' W 002°42'510.1
2017-Nov-09 23:30N 51°38' W 002°38'5 9.2
2017-Nov-09 23:00N 51°41' W 002°32'3 0.2
2017-Nov-09 08:00N 51°43' W 002°29'0 0.0
2017-Nov-08 07:06N 51°43' W 002°29'0 0.0
2017-Nov-08 06:48N 51°43' W 002°29'0 0.0
2017-Nov-08 06:30N 51°43' W 002°29'0 0.0
2017-Nov-08 05:54N 51°43' W 002°29'0 0.0
2017-Nov-08 05:30N 51°43' W 002°29'0 0.0
2017-Nov-08 05:00N 51°43' W 002°29'0 0.0
2017-Nov-08 04:24N 51°43' W 002°29'  

Dump ship's entire track history